• Join FlightAware (Why Join?)
  • Login
  • US Flag 
08:28PM EST


 

Airport Tracker/Info


-or-


 

Live Flight TrackerFlight Track Log ✈ N9944Q ✈ 21-Apr-2014 ✈ KPNE - KACY

Flight Track Log - Related Links

Times and Time Zones

All times are in EDT time to prevent confusion due to time zone crossing. See the N9944Q flight status page for this flight to view local times or setup timezone preferences in your user account.

Time Position Orientation Groundspeed Altitude Reporting Facility
EDT Latitude Longitude Course Direction KTS MPH feet Rate Location/Type
10:00PM 40.0513 -74.9900 153° Southeast  Level FlightAware Approximate
10:01PM 40.0210 -74.9687 143° Southeast  Level Estimated
10:02PM 39.9906 -74.9474 180° South  Level Estimated
10:03PM 39.9603 -74.9261 151° Southeast  Level Estimated
10:04PM 39.9302 -74.9043 151° Southeast  Level FlightAware Approximate
10:05PM 39.9001 -74.8825 151° Southeast  Level FlightAware Approximate
10:06PM 39.8700 -74.8607 151° Southeast  Level FlightAware Approximate
10:07PM 39.8399 -74.8389 151° Southeast  Level FlightAware Approximate
10:08PM 39.8097 -74.8171 151° Southeast  Level FlightAware Approximate
10:09PM 39.7796 -74.7954 151° Southeast  Level FlightAware Approximate
10:10PM 39.7495 -74.7737 151° Southeast  Level FlightAware Approximate
10:11PM 39.7189 -74.7530 153° Southeast  Level Estimated
10:12PM 39.6884 -74.7323 152° Southeast  Level FlightAware Approximate
10:13PM 39.6578 -74.7116 152° Southeast  Level FlightAware Approximate
10:14PM 39.6273 -74.6909 152° Southeast  Level FlightAware Approximate
10:15PM 39.5967 -74.6703 152° Southeast  Level FlightAware Approximate
10:16PM 39.5661 -74.6498 153° Southeast  Level Estimated
10:17PM 39.5355 -74.6293 153° Southeast  Level FlightAware Approximate
10:18PM 39.5049 -74.6088 150° Southeast  Level Estimated
10:19PM 39.4753 -74.5861 149° Southeast  Level FlightAware Approximate
10:20PM 39.4576 -74.5772 150° Southeast  Level Estimated
10:21PM 39.4576 -74.5772 133° Southeast  Level Estimated
10:22PM 39.4576 -74.5772 133° Southeast  Level Estimated
10:23PM 39.4576 -74.5772 150° Southeast  Level Estimated